RYR31KK LICJ-LIMJ
Flight info
| Callsign | RYR31KK |
|---|---|
| Flight time | 1h 13m |
| Altitude | 38000 |
| Route | LURON DCT RONAB DCT RUVIP DCT BETOT DCT POKAV DCT TINTO DCT VELAD DCT ELB DCT NORNI DCT BETEN M729 IDONA |
| Aircraft | B738/M-SDE3FGILRWY/SB1 |
Departure
| Time | 2026-04-23 16:14 |
|---|---|
| Airport | Falcone–Borsellino Airport (LICJ) |
Arrival
| Time | 2026-04-23 17:28 |
|---|---|
| Airport | Genoa Cristoforo Colombo Airport (LIMJ) |
| Time | Latitude | Longitude | Altitude | Speed | Heading |
|---|---|---|---|---|---|
| 2026-04-23 15:27 | 38.18476 | 13.10372 | 47 ft | 0 kts | 66° |
| 2026-04-23 16:05 | 38.18474 | 13.10368 | 52 ft | 3 kts | 66° |
| 2026-04-23 16:05 | 38.18460 | 13.10327 | 48 ft | 4 kts | 64° |
| 2026-04-23 16:05 | 38.18447 | 13.10297 | 47 ft | 4 kts | 54° |
| 2026-04-23 16:05 | 38.18430 | 13.10270 | 49 ft | 4 kts | 49° |
| 2026-04-23 16:06 | 38.18414 | 13.10244 | 47 ft | 3 kts | 63° |
| 2026-04-23 16:06 | 38.18414 | 13.10248 | 47 ft | 4 kts | 74° |
| 2026-04-23 16:06 | 38.18403 | 13.10272 | 52 ft | 4 kts | 135° |
| 2026-04-23 16:06 | 38.18380 | 13.10290 | 52 ft | 4 kts | 153° |
| 2026-04-23 16:07 | 38.18364 | 13.10299 | 52 ft | 0 kts | 157° |
| 2026-04-23 16:09 | 38.18362 | 13.10299 | 48 ft | 1 kts | 157° |
| 2026-04-23 16:09 | 38.18328 | 13.10318 | 52 ft | 10 kts | 156° |
| 2026-04-23 16:10 | 38.18256 | 13.10366 | 51 ft | 11 kts | 153° |
| 2026-04-23 16:10 | 38.18199 | 13.10322 | 52 ft | 12 kts | 246° |
| 2026-04-23 16:10 | 38.18156 | 13.10195 | 50 ft | 20 kts | 247° |
| 2026-04-23 16:10 | 38.18099 | 13.10025 | 49 ft | 21 kts | 247° |
| 2026-04-23 16:11 | 38.18043 | 13.09857 | 52 ft | 20 kts | 247° |
| 2026-04-23 16:11 | 38.17988 | 13.09695 | 48 ft | 20 kts | 246° |
| 2026-04-23 16:11 | 38.17935 | 13.09537 | 52 ft | 19 kts | 247° |
| 2026-04-23 16:11 | 38.17880 | 13.09374 | 51 ft | 20 kts | 247° |
| 2026-04-23 16:12 | 38.17825 | 13.09210 | 49 ft | 20 kts | 247° |
| 2026-04-23 16:12 | 38.17773 | 13.09054 | 52 ft | 15 kts | 247° |
| 2026-04-23 16:12 | 38.17725 | 13.08939 | 52 ft | 15 kts | 223° |
| 2026-04-23 16:12 | 38.17647 | 13.08863 | 50 ft | 13 kts | 217° |
| 2026-04-23 16:13 | 38.17577 | 13.08796 | 52 ft | 12 kts | 217° |
| 2026-04-23 16:13 | 38.17485 | 13.08809 | 49 ft | 7 kts | 68° |
| 2026-04-23 16:13 | 38.17518 | 13.08908 | 50 ft | 31 kts | 66° |
| 2026-04-23 16:14 | 38.17693 | 13.09430 | 50 ft | 95 kts | 67° |
| 2026-04-23 16:14 | 38.18025 | 13.10398 | 84 ft | 142 kts | 63° |
| 2026-04-23 16:14 | 38.18421 | 13.11598 | 574 ft | 148 kts | 64° |
| 2026-04-23 16:14 | 38.18837 | 13.12837 | 1179 ft | 152 kts | 62° |
| 2026-04-23 16:15 | 38.19271 | 13.14075 | 1811 ft | 159 kts | 62° |
| 2026-04-23 16:15 | 38.19761 | 13.15466 | 2094 ft | 185 kts | 63° |
| 2026-04-23 16:15 | 38.20306 | 13.17042 | 2460 ft | 199 kts | 63° |
| 2026-04-23 16:15 | 38.20902 | 13.18655 | 2912 ft | 206 kts | 53° |
| 2026-04-23 16:16 | 38.21887 | 13.19917 | 3644 ft | 201 kts | 38° |
| 2026-04-23 16:16 | 38.23151 | 13.20859 | 3895 ft | 223 kts | 22° |
| 2026-04-23 16:16 | 38.24656 | 13.21633 | 4238 ft | 241 kts | 22° |
| 2026-04-23 16:16 | 38.26241 | 13.22453 | 4919 ft | 243 kts | 22° |
| 2026-04-23 16:17 | 38.27819 | 13.23276 | 5624 ft | 248 kts | 21° |
| 2026-04-23 16:17 | 38.29419 | 13.24115 | 6243 ft | 255 kts | 21° |
| 2026-04-23 16:17 | 38.31067 | 13.24985 | 6947 ft | 259 kts | 21° |
| 2026-04-23 16:17 | 38.32736 | 13.25869 | 7689 ft | 260 kts | 20° |
| 2026-04-23 16:18 | 38.34416 | 13.26762 | 8399 ft | 264 kts | 20° |
| 2026-04-23 16:18 | 38.36135 | 13.27677 | 9130 ft | 268 kts | 19° |
| 2026-04-23 16:18 | 38.37862 | 13.28597 | 9950 ft | 270 kts | 19° |
| 2026-04-23 16:18 | 38.39600 | 13.29524 | 10521 ft | 280 kts | 19° |
| 2026-04-23 16:19 | 38.41550 | 13.30141 | 10666 ft | 300 kts | 358° |
| 2026-04-23 16:19 | 38.43664 | 13.29728 | 10894 ft | 317 kts | 343° |
| 2026-04-23 16:19 | 38.45806 | 13.28847 | 11401 ft | 327 kts | 341° |
| 2026-04-23 16:19 | 38.47970 | 13.27894 | 12114 ft | 330 kts | 340° |
| 2026-04-23 16:20 | 38.50120 | 13.26939 | 12915 ft | 331 kts | 340° |
| 2026-04-23 16:20 | 38.52308 | 13.25978 | 13697 ft | 334 kts | 340° |
| 2026-04-23 16:20 | 38.54526 | 13.25013 | 14407 ft | 337 kts | 340° |
| 2026-04-23 16:20 | 38.56759 | 13.24050 | 15137 ft | 340 kts | 340° |
| 2026-04-23 16:21 | 38.59018 | 13.23081 | 15887 ft | 343 kts | 340° |
| 2026-04-23 16:21 | 38.61293 | 13.22108 | 16568 ft | 347 kts | 341° |
| 2026-04-23 16:21 | 38.63581 | 13.21130 | 17219 ft | 352 kts | 341° |
| 2026-04-23 16:21 | 38.65918 | 13.20133 | 17947 ft | 355 kts | 340° |
| 2026-04-23 16:22 | 38.68281 | 13.19124 | 18618 ft | 358 kts | 340° |
| 2026-04-23 16:22 | 38.70654 | 13.18111 | 19219 ft | 360 kts | 340° |
| 2026-04-23 16:22 | 38.73049 | 13.17087 | 19856 ft | 363 kts | 340° |
| 2026-04-23 16:22 | 38.75415 | 13.16074 | 20477 ft | 364 kts | 340° |
| 2026-04-23 16:23 | 38.77830 | 13.15040 | 21084 ft | 367 kts | 340° |
| 2026-04-23 16:23 | 38.80266 | 13.13996 | 21675 ft | 370 kts | 340° |
| 2026-04-23 16:23 | 38.82728 | 13.12941 | 22235 ft | 372 kts | 340° |
| 2026-04-23 16:23 | 38.85183 | 13.11816 | 22668 ft | 379 kts | 336° |
| 2026-04-23 16:24 | 38.87388 | 13.09957 | 22997 ft | 389 kts | 321° |
| 2026-04-23 16:24 | 38.89401 | 13.07602 | 23592 ft | 391 kts | 319° |
| 2026-04-23 16:24 | 38.91394 | 13.05198 | 24102 ft | 393 kts | 319° |
| 2026-04-23 16:24 | 38.93386 | 13.02781 | 24609 ft | 393 kts | 318° |
| 2026-04-23 16:25 | 38.95378 | 13.00369 | 25102 ft | 394 kts | 318° |
| 2026-04-23 16:25 | 38.97362 | 12.97976 | 25573 ft | 395 kts | 318° |
| 2026-04-23 16:25 | 38.99379 | 12.95552 | 26028 ft | 397 kts | 318° |
| 2026-04-23 16:25 | 39.01404 | 12.93126 | 26471 ft | 398 kts | 318° |
| 2026-04-23 16:26 | 39.03437 | 12.90692 | 26917 ft | 399 kts | 318° |
| 2026-04-23 16:26 | 39.05478 | 12.88251 | 27345 ft | 401 kts | 318° |
| 2026-04-23 16:26 | 39.07502 | 12.85828 | 27764 ft | 402 kts | 318° |
| 2026-04-23 16:26 | 39.09564 | 12.83358 | 28179 ft | 404 kts | 319° |
| 2026-04-23 16:27 | 39.13780 | 12.78306 | 28408 ft | 421 kts | 319° |
| 2026-04-23 16:27 | 39.15931 | 12.75725 | 28751 ft | 422 kts | 319° |
| 2026-04-23 16:27 | 39.18051 | 12.73176 | 29198 ft | 422 kts | 319° |
| 2026-04-23 16:28 | 39.20203 | 12.70587 | 29605 ft | 423 kts | 319° |
| 2026-04-23 16:28 | 39.22360 | 12.67989 | 29971 ft | 424 kts | 319° |
| 2026-04-23 16:28 | 39.24522 | 12.65383 | 30374 ft | 424 kts | 319° |
| 2026-04-23 16:28 | 39.26671 | 12.62791 | 30839 ft | 420 kts | 319° |
| 2026-04-23 16:29 | 39.28804 | 12.60214 | 31324 ft | 417 kts | 318° |
| 2026-04-23 16:29 | 39.30916 | 12.57662 | 31741 ft | 415 kts | 318° |
| 2026-04-23 16:29 | 39.32996 | 12.55148 | 32104 ft | 414 kts | 318° |
| 2026-04-23 16:29 | 39.35099 | 12.52603 | 32494 ft | 413 kts | 318° |
| 2026-04-23 16:30 | 39.37204 | 12.50053 | 32665 ft | 418 kts | 319° |
| 2026-04-23 16:30 | 39.39348 | 12.47455 | 32769 ft | 423 kts | 319° |
| 2026-04-23 16:30 | 39.41496 | 12.44849 | 33168 ft | 421 kts | 319° |
| 2026-04-23 16:30 | 39.43595 | 12.42300 | 33707 ft | 415 kts | 318° |
| 2026-04-23 16:31 | 39.45693 | 12.39747 | 34192 ft | 411 kts | 318° |
| 2026-04-23 16:31 | 39.47771 | 12.37219 | 34575 ft | 408 kts | 318° |
| 2026-04-23 16:31 | 39.49849 | 12.34689 | 34764 ft | 410 kts | 318° |
| 2026-04-23 16:31 | 39.51908 | 12.32181 | 34930 ft | 412 kts | 318° |
| 2026-04-23 16:32 | 39.54001 | 12.29628 | 35181 ft | 412 kts | 318° |
| 2026-04-23 16:32 | 39.56090 | 12.27078 | 35480 ft | 411 kts | 318° |
| 2026-04-23 16:32 | 39.58179 | 12.24526 | 35728 ft | 411 kts | 318° |
| 2026-04-23 16:32 | 39.60265 | 12.21975 | 35946 ft | 412 kts | 318° |
| 2026-04-23 16:33 | 39.62356 | 12.19416 | 36078 ft | 415 kts | 318° |
| 2026-04-23 16:33 | 39.64446 | 12.16856 | 36128 ft | 420 kts | 318° |
| 2026-04-23 16:33 | 39.66573 | 12.14248 | 36390 ft | 419 kts | 318° |
| 2026-04-23 16:33 | 39.68684 | 12.11656 | 36734 ft | 416 kts | 318° |
| 2026-04-23 16:34 | 39.70786 | 12.09073 | 36994 ft | 416 kts | 318° |
| 2026-04-23 16:34 | 39.72887 | 12.06490 | 37176 ft | 417 kts | 318° |
| 2026-04-23 16:34 | 39.75004 | 12.03886 | 37337 ft | 418 kts | 318° |
| 2026-04-23 16:34 | 39.77112 | 12.01289 | 37618 ft | 416 kts | 318° |
| 2026-04-23 16:35 | 39.79212 | 11.98699 | 37893 ft | 415 kts | 318° |
| 2026-04-23 16:35 | 39.81311 | 11.96111 | 38084 ft | 416 kts | 318° |
| 2026-04-23 16:35 | 39.85564 | 11.91009 | 38131 ft | 419 kts | 323° |
| 2026-04-23 16:36 | 39.90576 | 11.87201 | 38146 ft | 417 kts | 339° |
| 2026-04-23 16:36 | 39.96032 | 11.84537 | 38147 ft | 418 kts | 339° |
| 2026-04-23 16:37 | 40.01458 | 11.81866 | 38149 ft | 419 kts | 339° |
| 2026-04-23 16:37 | 40.06914 | 11.79129 | 38153 ft | 420 kts | 339° |
| 2026-04-23 16:38 | 40.12375 | 11.76386 | 38151 ft | 420 kts | 339° |
| 2026-04-23 16:38 | 40.17805 | 11.73658 | 38153 ft | 420 kts | 339° |
| 2026-04-23 16:39 | 40.23273 | 11.70904 | 38153 ft | 420 kts | 339° |
| 2026-04-23 16:39 | 40.28728 | 11.68152 | 38156 ft | 419 kts | 339° |
| 2026-04-23 16:40 | 40.34138 | 11.65418 | 38141 ft | 419 kts | 339° |
| 2026-04-23 16:40 | 40.39580 | 11.62664 | 38155 ft | 418 kts | 339° |
| 2026-04-23 16:41 | 40.45013 | 11.59905 | 38168 ft | 418 kts | 339° |
| 2026-04-23 16:41 | 40.50445 | 11.57141 | 38160 ft | 418 kts | 339° |
| 2026-04-23 16:42 | 40.55848 | 11.54387 | 38153 ft | 419 kts | 340° |
| 2026-04-23 16:42 | 40.60371 | 11.52078 | 38166 ft | 419 kts | 339° |
| 2026-04-23 16:43 | 40.65818 | 11.49292 | 38151 ft | 420 kts | 340° |
| 2026-04-23 16:43 | 40.72158 | 11.46045 | 38151 ft | 420 kts | 339° |
| 2026-04-23 16:44 | 40.76727 | 11.43699 | 38158 ft | 421 kts | 339° |
| 2026-04-23 16:44 | 40.82163 | 11.40905 | 38159 ft | 421 kts | 340° |
| 2026-04-23 16:45 | 40.87635 | 11.38089 | 38151 ft | 421 kts | 340° |
| 2026-04-23 16:45 | 40.93103 | 11.35270 | 38152 ft | 422 kts | 340° |
| 2026-04-23 16:46 | 40.98561 | 11.32451 | 38155 ft | 422 kts | 340° |
| 2026-04-23 16:46 | 41.04029 | 11.29620 | 38142 ft | 422 kts | 340° |
| 2026-04-23 16:47 | 41.09474 | 11.26798 | 38149 ft | 421 kts | 340° |
| 2026-04-23 16:47 | 41.14940 | 11.23958 | 38148 ft | 421 kts | 340° |
| 2026-04-23 16:48 | 41.20385 | 11.21125 | 38152 ft | 421 kts | 340° |
| 2026-04-23 16:48 | 41.25850 | 11.18277 | 38138 ft | 421 kts | 340° |
| 2026-04-23 16:49 | 41.31317 | 11.15422 | 38149 ft | 421 kts | 340° |
| 2026-04-23 16:49 | 41.36742 | 11.12583 | 38146 ft | 421 kts | 340° |
| 2026-04-23 16:50 | 41.42211 | 11.09717 | 38145 ft | 421 kts | 340° |
| 2026-04-23 16:50 | 41.47647 | 11.06863 | 38136 ft | 422 kts | 340° |
| 2026-04-23 16:51 | 41.53119 | 11.03987 | 38148 ft | 422 kts | 340° |
| 2026-04-23 16:51 | 41.58603 | 11.01100 | 38148 ft | 423 kts | 340° |
| 2026-04-23 16:52 | 41.64065 | 10.98218 | 38151 ft | 424 kts | 340° |
| 2026-04-23 16:52 | 41.69576 | 10.95306 | 38134 ft | 426 kts | 340° |
| 2026-04-23 16:53 | 41.75068 | 10.92398 | 38149 ft | 427 kts | 340° |
| 2026-04-23 16:53 | 41.80609 | 10.89458 | 38148 ft | 428 kts | 340° |
| 2026-04-23 16:54 | 41.86130 | 10.86523 | 38154 ft | 430 kts | 340° |
| 2026-04-23 16:54 | 41.91700 | 10.83557 | 38143 ft | 431 kts | 340° |
| 2026-04-23 16:55 | 41.97295 | 10.80572 | 38156 ft | 432 kts | 340° |
| 2026-04-23 16:55 | 42.02899 | 10.77577 | 38152 ft | 433 kts | 340° |
| 2026-04-23 16:56 | 42.08473 | 10.74592 | 38151 ft | 433 kts | 340° |
| 2026-04-23 16:56 | 42.14064 | 10.71592 | 38150 ft | 434 kts | 340° |
| 2026-04-23 16:57 | 42.19680 | 10.68573 | 38157 ft | 434 kts | 340° |
| 2026-04-23 16:57 | 42.25294 | 10.65549 | 38154 ft | 433 kts | 340° |
| 2026-04-23 16:58 | 42.30867 | 10.62541 | 38152 ft | 433 kts | 340° |
| 2026-04-23 16:58 | 42.36462 | 10.59515 | 38155 ft | 432 kts | 340° |
| 2026-04-23 16:59 | 42.42056 | 10.56484 | 38143 ft | 432 kts | 339° |
| 2026-04-23 16:59 | 42.47588 | 10.53480 | 38155 ft | 431 kts | 339° |
| 2026-04-23 17:00 | 42.53173 | 10.50444 | 37750 ft | 436 kts | 340° |
| 2026-04-23 17:00 | 42.55984 | 10.48913 | 37267 ft | 433 kts | 340° |
| 2026-04-23 17:00 | 42.58786 | 10.47384 | 36730 ft | 431 kts | 340° |
| 2026-04-23 17:01 | 42.61572 | 10.45863 | 36151 ft | 431 kts | 341° |
| 2026-04-23 17:01 | 42.64327 | 10.44358 | 35557 ft | 432 kts | 341° |
| 2026-04-23 17:01 | 42.67123 | 10.42830 | 34954 ft | 433 kts | 341° |
| 2026-04-23 17:01 | 42.69909 | 10.41305 | 34529 ft | 430 kts | 341° |
| 2026-04-23 17:02 | 42.71786 | 10.40276 | 34200 ft | 429 kts | 342° |
| 2026-04-23 17:02 | 42.75397 | 10.38041 | 33204 ft | 435 kts | 336° |
| 2026-04-23 17:02 | 42.78048 | 10.36074 | 32735 ft | 432 kts | 334° |
| 2026-04-23 17:02 | 42.80656 | 10.34050 | 32235 ft | 430 kts | 333° |
| 2026-04-23 17:03 | 42.83242 | 10.32028 | 31796 ft | 426 kts | 333° |
| 2026-04-23 17:03 | 42.85802 | 10.30041 | 31368 ft | 422 kts | 334° |
| 2026-04-23 17:03 | 42.88348 | 10.28085 | 30947 ft | 418 kts | 334° |
| 2026-04-23 17:03 | 42.90879 | 10.26155 | 30538 ft | 414 kts | 334° |
| 2026-04-23 17:04 | 42.93361 | 10.24271 | 30120 ft | 411 kts | 334° |
| 2026-04-23 17:04 | 42.95857 | 10.22380 | 29644 ft | 407 kts | 334° |
| 2026-04-23 17:04 | 42.98317 | 10.20516 | 29227 ft | 402 kts | 334° |
| 2026-04-23 17:04 | 43.00754 | 10.18668 | 28793 ft | 398 kts | 334° |
| 2026-04-23 17:05 | 43.03159 | 10.16843 | 28373 ft | 394 kts | 334° |
| 2026-04-23 17:05 | 43.05544 | 10.15032 | 27969 ft | 390 kts | 334° |
| 2026-04-23 17:05 | 43.07883 | 10.13253 | 27548 ft | 387 kts | 334° |
| 2026-04-23 17:05 | 43.10226 | 10.11470 | 27136 ft | 384 kts | 334° |
| 2026-04-23 17:06 | 43.12555 | 10.09696 | 26738 ft | 381 kts | 334° |
| 2026-04-23 17:06 | 43.14865 | 10.07934 | 26339 ft | 378 kts | 334° |
| 2026-04-23 17:06 | 43.17161 | 10.06182 | 25941 ft | 376 kts | 334° |
| 2026-04-23 17:06 | 43.19436 | 10.04443 | 25532 ft | 373 kts | 334° |
| 2026-04-23 17:07 | 43.21673 | 10.02734 | 25150 ft | 371 kts | 334° |
| 2026-04-23 17:07 | 43.23923 | 10.01012 | 24760 ft | 369 kts | 334° |
| 2026-04-23 17:07 | 43.26165 | 9.99295 | 24373 ft | 367 kts | 334° |
| 2026-04-23 17:07 | 43.28395 | 9.97586 | 23994 ft | 366 kts | 334° |
| 2026-04-23 17:08 | 43.30617 | 9.95881 | 23550 ft | 365 kts | 334° |
| 2026-04-23 17:08 | 43.32826 | 9.94185 | 23107 ft | 363 kts | 334° |
| 2026-04-23 17:08 | 43.35020 | 9.92498 | 22705 ft | 360 kts | 334° |
| 2026-04-23 17:08 | 43.37201 | 9.90819 | 22323 ft | 357 kts | 334° |
| 2026-04-23 17:09 | 43.39362 | 9.89155 | 21930 ft | 354 kts | 334° |
| 2026-04-23 17:09 | 43.41484 | 9.87519 | 21547 ft | 351 kts | 334° |
| 2026-04-23 17:09 | 43.43612 | 9.85878 | 21184 ft | 349 kts | 334° |
| 2026-04-23 17:09 | 43.45730 | 9.84243 | 20805 ft | 346 kts | 334° |
| 2026-04-23 17:10 | 43.47836 | 9.82616 | 20421 ft | 344 kts | 333° |
| 2026-04-23 17:10 | 43.49891 | 9.81027 | 20072 ft | 342 kts | 333° |
| 2026-04-23 17:10 | 43.51961 | 9.79426 | 19708 ft | 340 kts | 333° |
| 2026-04-23 17:10 | 43.54020 | 9.77832 | 19347 ft | 338 kts | 333° |
| 2026-04-23 17:11 | 43.56063 | 9.76248 | 18990 ft | 336 kts | 333° |
| 2026-04-23 17:11 | 43.58098 | 9.74670 | 18648 ft | 334 kts | 333° |
| 2026-04-23 17:11 | 43.60114 | 9.73105 | 18263 ft | 332 kts | 333° |
| 2026-04-23 17:11 | 43.62123 | 9.71545 | 17860 ft | 330 kts | 333° |
| 2026-04-23 17:12 | 43.64118 | 9.69994 | 17495 ft | 327 kts | 333° |
| 2026-04-23 17:12 | 43.66092 | 9.68458 | 17128 ft | 325 kts | 333° |
| 2026-04-23 17:12 | 43.68061 | 9.66925 | 16769 ft | 323 kts | 333° |
| 2026-04-23 17:12 | 43.69987 | 9.65425 | 16416 ft | 321 kts | 333° |
| 2026-04-23 17:13 | 43.71925 | 9.63913 | 16067 ft | 319 kts | 333° |
| 2026-04-23 17:13 | 43.73853 | 9.62409 | 15716 ft | 317 kts | 333° |
| 2026-04-23 17:13 | 43.75772 | 9.60911 | 15365 ft | 315 kts | 333° |
| 2026-04-23 17:13 | 43.77679 | 9.59421 | 15019 ft | 314 kts | 333° |
| 2026-04-23 17:14 | 43.79582 | 9.57933 | 14674 ft | 313 kts | 333° |
| 2026-04-23 17:14 | 43.81447 | 9.56475 | 14328 ft | 312 kts | 333° |
| 2026-04-23 17:14 | 43.83338 | 9.54995 | 13971 ft | 311 kts | 334° |
| 2026-04-23 17:14 | 43.85217 | 9.53523 | 13587 ft | 310 kts | 334° |
| 2026-04-23 17:15 | 43.87089 | 9.52055 | 13218 ft | 308 kts | 334° |
| 2026-04-23 17:15 | 43.88955 | 9.50590 | 12862 ft | 307 kts | 334° |
| 2026-04-23 17:15 | 43.90812 | 9.49132 | 12513 ft | 305 kts | 334° |
| 2026-04-23 17:15 | 43.92643 | 9.47694 | 12170 ft | 304 kts | 334° |
| 2026-04-23 17:16 | 43.94471 | 9.46256 | 11966 ft | 298 kts | 334° |
| 2026-04-23 17:16 | 43.96248 | 9.44857 | 11816 ft | 289 kts | 333° |
| 2026-04-23 17:16 | 43.97974 | 9.43471 | 11689 ft | 282 kts | 329° |
| 2026-04-23 17:16 | 43.99331 | 9.41532 | 11567 ft | 280 kts | 307° |
| 2026-04-23 17:17 | 44.00389 | 9.39346 | 11466 ft | 272 kts | 307° |
| 2026-04-23 17:17 | 44.01442 | 9.37194 | 11345 ft | 265 kts | 308° |
| 2026-04-23 17:17 | 44.02127 | 9.35804 | 11270 ft | 260 kts | 308° |
| 2026-04-23 17:17 | 44.03526 | 9.33160 | 10993 ft | 253 kts | 320° |
| 2026-04-23 17:18 | 44.06389 | 9.30218 | 10259 ft | 263 kts | 333° |
| 2026-04-23 17:18 | 44.08117 | 9.29488 | 9795 ft | 262 kts | 3° |
| 2026-04-23 17:18 | 44.09825 | 9.30055 | 9514 ft | 254 kts | 30° |
| 2026-04-23 17:19 | 44.11182 | 9.31589 | 9189 ft | 253 kts | 49° |
| 2026-04-23 17:19 | 44.12284 | 9.33514 | 8844 ft | 254 kts | 53° |
| 2026-04-23 17:19 | 44.13396 | 9.35418 | 8561 ft | 253 kts | 41° |
| 2026-04-23 17:19 | 44.14973 | 9.36449 | 8310 ft | 253 kts | 11° |
| 2026-04-23 17:20 | 44.16728 | 9.36307 | 8066 ft | 256 kts | 346° |
| 2026-04-23 17:20 | 44.19749 | 9.33737 | 7547 ft | 258 kts | 325° |
| 2026-04-23 17:21 | 44.22570 | 9.30673 | 7041 ft | 256 kts | 325° |
| 2026-04-23 17:21 | 44.23982 | 9.29154 | 6784 ft | 255 kts | 326° |
| 2026-04-23 17:21 | 44.26799 | 9.26160 | 6284 ft | 253 kts | 325° |
| 2026-04-23 17:22 | 44.28202 | 9.24674 | 6013 ft | 252 kts | 325° |
| 2026-04-23 17:22 | 44.30998 | 9.21716 | 5408 ft | 254 kts | 324° |
| 2026-04-23 17:23 | 44.33690 | 9.18542 | 4977 ft | 251 kts | 305° |
| 2026-04-23 17:23 | 44.34376 | 9.16302 | 4693 ft | 253 kts | 288° |
| 2026-04-23 17:23 | 44.35385 | 9.11592 | 3984 ft | 252 kts | 287° |
| 2026-04-23 17:24 | 44.35875 | 9.09286 | 3624 ft | 242 kts | 287° |
| 2026-04-23 17:24 | 44.36344 | 9.07080 | 3286 ft | 232 kts | 287° |
| 2026-04-23 17:24 | 44.37224 | 9.02951 | 2674 ft | 210 kts | 288° |
| 2026-04-23 17:25 | 44.38016 | 8.99251 | 2097 ft | 190 kts | 287° |
| 2026-04-23 17:25 | 44.38386 | 8.97520 | 1826 ft | 182 kts | 287° |
| 2026-04-23 17:26 | 44.39091 | 8.94233 | 1333 ft | 168 kts | 285° |
| 2026-04-23 17:26 | 44.39713 | 8.91332 | 890 ft | 148 kts | 285° |
| 2026-04-23 17:27 | 44.40323 | 8.88539 | 527 ft | 154 kts | 285° |
| 2026-04-23 17:27 | 44.40625 | 8.87101 | 267 ft | 154 kts | 284° |
| 2026-04-23 17:27 | 44.40903 | 8.85675 | 62 ft | 150 kts | 283° |
| 2026-04-23 17:27 | 44.41161 | 8.84356 | 21 ft | 119 kts | 285° |
| 2026-04-23 17:28 | 44.41322 | 8.83535 | 20 ft | 53 kts | 285° |
| 2026-04-23 17:28 | 44.41398 | 8.83195 | 20 ft | 20 kts | 302° |
| 2026-04-23 17:28 | 44.41463 | 8.83102 | 20 ft | 12 kts | 321° |
| 2026-04-23 17:28 | 44.41537 | 8.83117 | 20 ft | 12 kts | 53° |
| 2026-04-23 17:29 | 44.41536 | 8.83228 | 19 ft | 12 kts | 104° |
| 2026-04-23 17:29 | 44.41513 | 8.83349 | 21 ft | 15 kts | 105° |
| 2026-04-23 17:29 | 44.41451 | 8.83660 | 20 ft | 21 kts | 105° |
| 2026-04-23 17:30 | 44.41412 | 8.83857 | 20 ft | 21 kts | 105° |
| 2026-04-23 17:30 | 44.41339 | 8.84230 | 19 ft | 15 kts | 105° |
| 2026-04-23 17:30 | 44.41315 | 8.84352 | 19 ft | 10 kts | 105° |
| 2026-04-23 17:31 | 44.41332 | 8.84436 | 21 ft | 8 kts | 53° |
| 2026-04-23 17:31 | 44.41364 | 8.84498 | 19 ft | 8 kts | 52° |
| 2026-04-23 17:31 | 44.41396 | 8.84557 | 19 ft | 8 kts | 52° |
| 2026-04-23 17:31 | 44.41414 | 8.84626 | 19 ft | 8 kts | 97° |
| 2026-04-23 17:32 | 44.41400 | 8.84700 | 19 ft | 9 kts | 105° |
| 2026-04-23 17:32 | 44.41384 | 8.84784 | 22 ft | 9 kts | 105° |
| 2026-04-23 17:32 | 44.41388 | 8.84846 | 21 ft | 6 kts | 57° |
| 2026-04-23 17:32 | 44.41410 | 8.84899 | 19 ft | 6 kts | 60° |
| 2026-04-23 17:33 | 44.41422 | 8.84927 | 19 ft | 3 kts | 59° |
| 2026-04-23 17:33 | 44.41429 | 8.84944 | 19 ft | 1 kts | 59° |
| 2026-04-23 17:33 | 44.41432 | 8.84952 | 19 ft | 1 kts | 60° |
| 2026-04-23 17:33 | 44.41433 | 8.84953 | 19 ft | 0 kts | 60° |